sensor_id;sensor_type;location;lat;lon;timestamp;pressure;altitude;pressure_sealevel;temperature;humidity
57606;BME280;43430;48.204;11.556;2023-04-23T00:00:27;95379.50;;;13.19;100.00
57606;BME280;43430;48.204;11.556;2023-04-23T00:02:56;95389.84;;;13.20;100.00
57606;BME280;43430;48.204;11.556;2023-04-23T00:05:26;95379.81;;;13.22;100.00
57606;BME280;43430;48.204;11.556;2023-04-23T00:07:52;95379.81;;;13.22;100.00
57606;BME280;43430;48.204;11.556;2023-04-23T00:10:18;95376.59;;;13.20;100.00
57606;BME280;43430;48.204;11.556;2023-04-23T00:12:44;95379.22;;;13.15;100.00
57606;BME280;43430;48.204;11.556;2023-04-23T00:15:10;95381.56;;;13.12;100.00
57606;BME280;43430;48.204;11.556;2023-04-23T00:17:36;95379.16;;;13.10;100.00
57606;BME280;43430;48.204;11.556;2023-04-23T00:20:02;95380.22;;;13.09;100.00
57606;BME280;43430;48.204;11.556;2023-04-23T00:22:27;95370.72;;;13.13;100.00
57606;BME280;43430;48.204;11.556;2023-04-23T00:24:52;95368.84;;;13.09;100.00
57606;BME280;43430;48.204;11.556;2023-04-23T00:27:18;95370.69;;;13.08;100.00
57606;BME280;43430;48.204;11.556;2023-04-23T00:29:45;95364.03;;;13.05;100.00
57606;BME280;43430;48.204;11.556;2023-04-23T00:32:10;95362.50;;;13.10;100.00
57606;BME280;43430;48.204;11.556;2023-04-23T00:34:36;95355.34;;;13.10;100.00
57606;BME280;43430;48.204;11.556;2023-04-23T00:37:01;95360.09;;;13.08;100.00
57606;BME280;43430;48.204;11.556;2023-04-23T00:39:30;95353.47;;;13.05;100.00
57606;BME280;43430;48.204;11.556;2023-04-23T00:41:55;95353.75;;;13.09;100.00
57606;BME280;43430;48.204;11.556;2023-04-23T00:44:20;95354.25;;;13.06;100.00
57606;BME280;43430;48.204;11.556;2023-04-23T00:46:46;95358.47;;;13.02;100.00
57606;BME280;43430;48.204;11.556;2023-04-23T00:49:13;95352.59;;;13.00;100.00
57606;BME280;43430;48.204;11.556;2023-04-23T00:51:38;95354.72;;;12.98;100.00
57606;BME280;43430;48.204;11.556;2023-04-23T00:54:03;95352.56;;;12.95;100.00
57606;BME280;43430;48.204;11.556;2023-04-23T00:56:29;95352.00;;;12.93;100.00
57606;BME280;43430;48.204;11.556;2023-04-23T00:58:55;95353.88;;;12.92;100.00
57606;BME280;43430;48.204;11.556;2023-04-23T01:01:20;95341.69;;;12.91;100.00
57606;BME280;43430;48.204;11.556;2023-04-23T01:03:50;95349.94;;;12.95;100.00
57606;BME280;43430;48.204;11.556;2023-04-23T01:06:16;95353.56;;;12.89;100.00
57606;BME280;43430;48.204;11.556;2023-04-23T01:08:42;95351.19;;;12.87;100.00
57606;BME280;43430;48.204;11.556;2023-04-23T01:11:08;95345.06;;;12.87;100.00
57606;BME280;43430;48.204;11.556;2023-04-23T01:13:34;95355.13;;;12.85;100.00
57606;BME280;43430;48.204;11.556;2023-04-23T01:16:00;95355.63;;;12.81;100.00
57606;BME280;43430;48.204;11.556;2023-04-23T01:18:25;95355.06;;;12.79;100.00
57606;BME280;43430;48.204;11.556;2023-04-23T01:20:52;95360.63;;;12.78;100.00
57606;BME280;43430;48.204;11.556;2023-04-23T01:23:17;95359.53;;;12.74;100.00
57606;BME280;43430;48.204;11.556;2023-04-23T01:25:43;95356.31;;;12.72;100.00
57606;BME280;43430;48.204;11.556;2023-04-23T01:28:08;95356.59;;;12.70;100.00
57606;BME280;43430;48.204;11.556;2023-04-23T01:30:35;95348.34;;;12.67;100.00
57606;BME280;43430;48.204;11.556;2023-04-23T01:33:01;95356.00;;;12.63;100.00
57606;BME280;43430;48.204;11.556;2023-04-23T01:35:27;95359.13;;;12.60;100.00
57606;BME280;43430;48.204;11.556;2023-04-23T01:37:54;95352.19;;;12.54;100.00
57606;BME280;43430;48.204;11.556;2023-04-23T01:40:21;95351.13;;;12.55;100.00
57606;BME280;43430;48.204;11.556;2023-04-23T01:42:49;95348.47;;;12.55;100.00
57606;BME280;43430;48.204;11.556;2023-04-23T01:45:15;95357.22;;;12.55;100.00
57606;BME280;43430;48.204;11.556;2023-04-23T01:47:44;95360.16;;;12.59;100.00
57606;BME280;43430;48.204;11.556;2023-04-23T01:50:10;95365.44;;;12.59;100.00
57606;BME280;43430;48.204;11.556;2023-04-23T01:52:36;95370.13;;;12.52;100.00
57606;BME280;43430;48.204;11.556;2023-04-23T01:55:02;95376.84;;;12.38;100.00
57606;BME280;43430;48.204;11.556;2023-04-23T01:57:27;95383.19;;;12.37;100.00
57606;BME280;43430;48.204;11.556;2023-04-23T02:00:19;95376.56;;;12.34;100.00
57606;BME280;43430;48.204;11.556;2023-04-23T02:02:45;95388.19;;;12.33;100.00
57606;BME280;43430;48.204;11.556;2023-04-23T02:05:16;95384.50;;;12.34;100.00
57606;BME280;43430;48.204;11.556;2023-04-23T02:07:49;95399.56;;;12.33;100.00
57606;BME280;43430;48.204;11.556;2023-04-23T02:10:15;95404.84;;;12.33;100.00
57606;BME280;43430;48.204;11.556;2023-04-23T02:12:40;95419.59;;;12.29;100.00
57606;BME280;43430;48.204;11.556;2023-04-23T02:15:08;95418.72;;;12.24;100.00
57606;BME280;43430;48.204;11.556;2023-04-23T02:17:34;95428.94;;;12.15;100.00
57606;BME280;43430;48.204;11.556;2023-04-23T02:19:59;95427.31;;;12.14;100.00
57606;BME280;43430;48.204;11.556;2023-04-23T02:22:25;95421.97;;;12.09;100.00
57606;BME280;43430;48.204;11.556;2023-04-23T02:24:52;95408.50;;;12.10;100.00
57606;BME280;43430;48.204;11.556;2023-04-23T02:27:18;95410.97;;;12.17;100.00
57606;BME280;43430;48.204;11.556;2023-04-23T02:29:44;95402.50;;;12.15;100.00
57606;BME280;43430;48.204;11.556;2023-04-23T02:32:10;95420.44;;;12.13;100.00
57606;BME280;43430;48.204;11.556;2023-04-23T02:34:36;95420.44;;;12.13;100.00
57606;BME280;43430;48.204;11.556;2023-04-23T02:37:02;95430.22;;;12.13;100.00
57606;BME280;43430;48.204;11.556;2023-04-23T02:39:29;95423.34;;;12.11;100.00
57606;BME280;43430;48.204;11.556;2023-04-23T02:41:54;95421.19;;;12.08;100.00
57606;BME280;43430;48.204;11.556;2023-04-23T02:44:20;95425.59;;;12.03;100.00
57606;BME280;43430;48.204;11.556;2023-04-23T02:46:46;95434.44;;;11.92;100.00
57606;BME280;43430;48.204;11.556;2023-04-23T02:49:11;95433.56;;;11.86;100.00
57606;BME280;43430;48.204;11.556;2023-04-23T02:51:36;95419.63;;;11.91;100.00
57606;BME280;43430;48.204;11.556;2023-04-23T02:54:02;95417.47;;;11.87;100.00
57606;BME280;43430;48.204;11.556;2023-04-23T02:56:28;95402.72;;;11.92;100.00
57606;BME280;43430;48.204;11.556;2023-04-23T02:58:53;95413.03;;;11.93;100.00
57606;BME280;43430;48.204;11.556;2023-04-23T03:01:19;95404.81;;;11.90;100.00
57606;BME280;43430;48.204;11.556;2023-04-23T03:03:44;95404.00;;;11.89;100.00
57606;BME280;43430;48.204;11.556;2023-04-23T03:06:10;95405.19;;;11.98;100.00
57606;BME280;43430;48.204;11.556;2023-04-23T03:08:35;95405.19;;;11.98;100.00
57606;BME280;43430;48.204;11.556;2023-04-23T03:11:01;95404.81;;;11.90;100.00
57606;BME280;43430;48.204;11.556;2023-04-23T03:13:26;95405.28;;;11.86;100.00
57606;BME280;43430;48.204;11.556;2023-04-23T03:15:52;95400.31;;;11.90;100.00
57606;BME280;43430;48.204;11.556;2023-04-23T03:18:18;95415.31;;;11.84;100.00
57606;BME280;43430;48.204;11.556;2023-04-23T03:20:43;95416.31;;;11.83;100.00
57606;BME280;43430;48.204;11.556;2023-04-23T03:23:09;95409.25;;;11.84;100.00
57606;BME280;43430;48.204;11.556;2023-04-23T03:25:34;95401.63;;;11.87;100.00
57606;BME280;43430;48.204;11.556;2023-04-23T03:28:00;95411.72;;;11.91;100.00
57606;BME280;43430;48.204;11.556;2023-04-23T03:30:26;95412.03;;;11.94;100.00
57606;BME280;43430;48.204;11.556;2023-04-23T03:32:54;95422.81;;;11.93;100.00
57606;BME280;43430;48.204;11.556;2023-04-23T03:35:21;95418.59;;;11.92;100.00
57606;BME280;43430;48.204;11.556;2023-04-23T03:37:46;95415.38;;;11.90;100.00
57606;BME280;43430;48.204;11.556;2023-04-23T03:40:12;95411.94;;;11.89;100.00
57606;BME280;43430;48.204;11.556;2023-04-23T03:42:37;95418.50;;;11.86;100.00
57606;BME280;43430;48.204;11.556;2023-04-23T03:45:03;95420.44;;;11.91;100.00
57606;BME280;43430;48.204;11.556;2023-04-23T03:47:28;95420.66;;;11.90;100.00
57606;BME280;43430;48.204;11.556;2023-04-23T03:49:55;95427.56;;;11.91;100.00
57606;BME280;43430;48.204;11.556;2023-04-23T03:52:20;95427.22;;;11.87;100.00
57606;BME280;43430;48.204;11.556;2023-04-23T03:54:46;95428.28;;;11.86;100.00
57606;BME280;43430;48.204;11.556;2023-04-23T03:57:11;95438.34;;;11.89;100.00
57606;BME280;43430;48.204;11.556;2023-04-23T03:59:37;95440.09;;;11.83;100.00
57606;BME280;43430;48.204;11.556;2023-04-23T04:02:02;95439.53;;;11.81;100.00
57606;BME280;43430;48.204;11.556;2023-04-23T04:04:29;95440.19;;;11.72;100.00
57606;BME280;43430;48.204;11.556;2023-04-23T04:06:55;95450.44;;;11.68;100.00
57606;BME280;43430;48.204;11.556;2023-04-23T04:09:20;95448.69;;;11.74;100.00
57606;BME280;43430;48.204;11.556;2023-04-23T04:11:46;95454.66;;;11.69;100.00
57606;BME280;43430;48.204;11.556;2023-04-23T04:14:12;95459.09;;;11.63;100.00
57606;BME280;43430;48.204;11.556;2023-04-23T04:16:38;95466.69;;;11.60;100.00
57606;BME280;43430;48.204;11.556;2023-04-23T04:19:03;95472.84;;;11.65;100.00
57606;BME280;43430;48.204;11.556;2023-04-23T04:21:29;95469.88;;;11.62;100.00
57606;BME280;43430;48.204;11.556;2023-04-23T04:23:55;95472.19;;;11.58;100.00
57606;BME280;43430;48.204;11.556;2023-04-23T04:26:20;95478.69;;;11.51;100.00
57606;BME280;43430;48.204;11.556;2023-04-23T04:28:45;95483.16;;;11.50;100.00
57606;BME280;43430;48.204;11.556;2023-04-23T04:31:12;95489.53;;;11.37;100.00
57606;BME280;43430;48.204;11.556;2023-04-23T04:33:40;95495.75;;;11.31;100.00
57606;BME280;43430;48.204;11.556;2023-04-23T04:36:06;95497.38;;;11.32;100.00
57606;BME280;43430;48.204;11.556;2023-04-23T04:38:33;95504.72;;;11.30;100.00
57606;BME280;43430;48.204;11.556;2023-04-23T04:41:02;95508.97;;;11.31;100.00
57606;BME280;43430;48.204;11.556;2023-04-23T04:43:27;95509.22;;;11.30;100.00
57606;BME280;43430;48.204;11.556;2023-04-23T04:45:52;95514.97;;;11.27;100.00
57606;BME280;43430;48.204;11.556;2023-04-23T04:48:18;95517.50;;;11.22;100.00
57606;BME280;43430;48.204;11.556;2023-04-23T04:50:43;95518.34;;;11.10;100.00
57606;BME280;43430;48.204;11.556;2023-04-23T04:53:10;95525.63;;;11.03;100.00
57606;BME280;43430;48.204;11.556;2023-04-23T04:55:35;95534.72;;;10.96;100.00
57606;BME280;43430;48.204;11.556;2023-04-23T04:58:01;95544.78;;;10.99;100.00
57606;BME280;43430;48.204;11.556;2023-04-23T05:00:28;95545.47;;;11.06;100.00
57606;BME280;43430;48.204;11.556;2023-04-23T05:02:55;95552.78;;;11.04;100.00
57606;BME280;43430;48.204;11.556;2023-04-23T05:05:22;95563.34;;;11.04;100.00
57606;BME280;43430;48.204;11.556;2023-04-23T05:07:47;95566.56;;;11.06;100.00
57606;BME280;43430;48.204;11.556;2023-04-23T05:10:14;95573.81;;;10.87;100.00
57606;BME280;43430;48.204;11.556;2023-04-23T05:12:40;95584.16;;;10.88;100.00
57606;BME280;43430;48.204;11.556;2023-04-23T05:15:10;95587.25;;;10.85;100.00
57606;BME280;43430;48.204;11.556;2023-04-23T05:17:40;95600.22;;;10.75;100.00
57606;BME280;43430;48.204;11.556;2023-04-23T05:20:06;95602.97;;;10.80;100.00
57606;BME280;43430;48.204;11.556;2023-04-23T05:22:39;95610.09;;;10.68;100.00
57606;BME280;43430;48.204;11.556;2023-04-23T05:25:06;95608.16;;;10.75;100.00
57606;BME280;43430;48.204;11.556;2023-04-23T05:27:33;95612.97;;;10.78;100.00
57606;BME280;43430;48.204;11.556;2023-04-23T05:30:03;95621.44;;;10.68;100.00
57606;BME280;43430;48.204;11.556;2023-04-23T05:32:28;95621.09;;;10.65;100.00
57606;BME280;43430;48.204;11.556;2023-04-23T05:34:54;95630.16;;;10.69;100.00
57606;BME280;43430;48.204;11.556;2023-04-23T05:37:20;95633.94;;;10.73;100.00
57606;BME280;43430;48.204;11.556;2023-04-23T05:39:45;95629.25;;;10.75;100.00
57606;BME280;43430;48.204;11.556;2023-04-23T05:42:11;95636.47;;;10.68;100.00
57606;BME280;43430;48.204;11.556;2023-04-23T05:44:37;95629.59;;;10.67;100.00
57606;BME280;43430;48.204;11.556;2023-04-23T05:47:02;95634.38;;;10.70;100.00
57606;BME280;43430;48.204;11.556;2023-04-23T05:49:28;95628.66;;;10.73;100.00
57606;BME280;43430;48.204;11.556;2023-04-23T05:51:54;95627.19;;;10.65;100.00
57606;BME280;43430;48.204;11.556;2023-04-23T05:54:20;95635.78;;;10.73;100.00
57606;BME280;43430;48.204;11.556;2023-04-23T05:56:45;95633.25;;;10.66;100.00
57606;BME280;43430;48.204;11.556;2023-04-23T05:59:10;95636.00;;;10.71;100.00
57606;BME280;43430;48.204;11.556;2023-04-23T06:01:36;95639.88;;;10.80;100.00
57606;BME280;43430;48.204;11.556;2023-04-23T06:04:02;95646.88;;;10.86;100.00
57606;BME280;43430;48.204;11.556;2023-04-23T06:06:27;95650.31;;;10.87;100.00
57606;BME280;43430;48.204;11.556;2023-04-23T06:08:53;95648.03;;;10.79;100.00
57606;BME280;43430;48.204;11.556;2023-04-23T06:11:19;95644.59;;;10.78;100.00
57606;BME280;43430;48.204;11.556;2023-04-23T06:13:45;95665.81;;;10.72;100.00
57606;BME280;43430;48.204;11.556;2023-04-23T06:16:11;95660.06;;;10.63;100.00
57606;BME280;43430;48.204;11.556;2023-04-23T06:18:36;95660.56;;;10.60;100.00
57606;BME280;43430;48.204;11.556;2023-04-23T06:21:03;95655.16;;;10.55;100.00
57606;BME280;43430;48.204;11.556;2023-04-23T06:23:30;95661.13;;;10.50;100.00
57606;BME280;43430;48.204;11.556;2023-04-23T06:25:55;95670.72;;;10.44;100.00
57606;BME280;43430;48.204;11.556;2023-04-23T06:28:21;95670.16;;;10.42;100.00
57606;BME280;43430;48.204;11.556;2023-04-23T06:30:46;95673.13;;;10.34;100.00
57606;BME280;43430;48.204;11.556;2023-04-23T06:33:12;95675.81;;;10.16;100.00
57606;BME280;43430;48.204;11.556;2023-04-23T06:35:37;95677.41;;;10.17;100.00
57606;BME280;43430;48.204;11.556;2023-04-23T06:38:03;95685.41;;;10.10;100.00
57606;BME280;43430;48.204;11.556;2023-04-23T06:40:28;95682.56;;;10.12;100.00
57606;BME280;43430;48.204;11.556;2023-04-23T06:42:53;95690.00;;;10.15;100.00
57606;BME280;43430;48.204;11.556;2023-04-23T06:45:20;95695.03;;;10.05;100.00
57606;BME280;43430;48.204;11.556;2023-04-23T06:47:45;95699.41;;;10.11;100.00
57606;BME280;43430;48.204;11.556;2023-04-23T06:50:11;95698.59;;;10.10;100.00
57606;BME280;43430;48.204;11.556;2023-04-23T06:52:36;95700.19;;;10.11;100.00
57606;BME280;43430;48.204;11.556;2023-04-23T06:55:02;95699.09;;;10.19;100.00
57606;BME280;43430;48.204;11.556;2023-04-23T06:57:27;95689.09;;;10.21;100.00
57606;BME280;43430;48.204;11.556;2023-04-23T06:59:53;95682.56;;;10.12;100.00
57606;BME280;43430;48.204;11.556;2023-04-23T07:02:18;95683.94;;;10.14;100.00
57606;BME280;43430;48.204;11.556;2023-04-23T07:04:43;95685.22;;;10.12;100.00
57606;BME280;43430;48.204;11.556;2023-04-23T07:07:09;95694.72;;;10.13;100.00
57606;BME280;43430;48.204;11.556;2023-04-23T07:09:34;95680.94;;;10.11;100.00
57606;BME280;43430;48.204;11.556;2023-04-23T07:12:00;95680.16;;;10.10;100.00
57606;BME280;43430;48.204;11.556;2023-04-23T07:14:26;95683.38;;;10.12;100.00
57606;BME280;43430;48.204;11.556;2023-04-23T07:16:51;95685.47;;;10.22;100.00
57606;BME280;43430;48.204;11.556;2023-04-23T07:19:18;95681.16;;;10.39;100.00
57606;BME280;43430;48.204;11.556;2023-04-23T07:21:44;95682.22;;;10.50;100.00
57606;BME280;43430;48.204;11.556;2023-04-23T07:24:09;95682.56;;;10.54;100.00
57606;BME280;43430;48.204;11.556;2023-04-23T07:26:35;95693.66;;;10.56;100.00
57606;BME280;43430;48.204;11.556;2023-04-23T07:29:04;95682.31;;;10.55;100.00
57606;BME280;43430;48.204;11.556;2023-04-23T07:31:35;95683.13;;;10.56;100.00
57606;BME280;43430;48.204;11.556;2023-04-23T07:34:01;95683.13;;;10.56;100.00
57606;BME280;43430;48.204;11.556;2023-04-23T07:36:26;95682.78;;;10.64;100.00
57606;BME280;43430;48.204;11.556;2023-04-23T07:38:52;95685.53;;;10.69;100.00
57606;BME280;43430;48.204;11.556;2023-04-23T07:41:17;95691.94;;;10.73;100.00
57606;BME280;43430;48.204;11.556;2023-04-23T07:43:42;95683.13;;;10.56;100.00
57606;BME280;43430;48.204;11.556;2023-04-23T07:46:08;95689.78;;;10.58;100.00
57606;BME280;43430;48.204;11.556;2023-04-23T07:48:33;95688.38;;;10.56;100.00
57606;BME280;43430;48.204;11.556;2023-04-23T07:50:59;95685.19;;;10.65;100.00
57606;BME280;43430;48.204;11.556;2023-04-23T07:53:25;95685.41;;;10.76;100.00
57606;BME280;43430;48.204;11.556;2023-04-23T07:55:54;95689.56;;;10.72;100.00
57606;BME280;43430;48.204;11.556;2023-04-23T07:58:24;95686.31;;;10.69;100.00
57606;BME280;43430;48.204;11.556;2023-04-23T08:00:49;95688.41;;;10.67;100.00
57606;BME280;43430;48.204;11.556;2023-04-23T08:03:15;95686.13;;;10.71;100.00
57606;BME280;43430;48.204;11.556;2023-04-23T08:05:40;95685.41;;;10.76;100.00
57606;BME280;43430;48.204;11.556;2023-04-23T08:08:07;95689.91;;;10.75;100.00
57606;BME280;43430;48.204;11.556;2023-04-23T08:10:33;95685.75;;;10.79;100.00
57606;BME280;43430;48.204;11.556;2023-04-23T08:12:59;95682.78;;;10.87;100.00
57606;BME280;43430;48.204;11.556;2023-04-23T08:15:25;95684.59;;;10.87;100.00
57606;BME280;43430;48.204;11.556;2023-04-23T08:17:51;95681.41;;;10.85;100.00
57606;BME280;43430;48.204;11.556;2023-04-23T08:20:16;95671.88;;;10.84;100.00
57606;BME280;43430;48.204;11.556;2023-04-23T08:22:42;95678.19;;;10.83;100.00
57606;BME280;43430;48.204;11.556;2023-04-23T08:25:08;95680.16;;;10.87;100.00
57606;BME280;43430;48.204;11.556;2023-04-23T08:27:33;95677.41;;;10.82;100.00
57606;BME280;43430;48.204;11.556;2023-04-23T08:29:59;95670.97;;;10.78;100.00
57606;BME280;43430;48.204;11.556;2023-04-23T08:32:24;95663.50;;;10.87;100.00
57606;BME280;43430;48.204;11.556;2023-04-23T08:34:49;95659.94;;;10.93;100.00
57606;BME280;43430;48.204;11.556;2023-04-23T08:37:15;95652.84;;;10.93;100.00
57606;BME280;43430;48.204;11.556;2023-04-23T08:39:40;95642.28;;;11.05;100.00
57606;BME280;43430;48.204;11.556;2023-04-23T08:42:12;95635.19;;;11.34;100.00
57606;BME280;43430;48.204;11.556;2023-04-23T08:44:40;95631.91;;;11.56;100.00
57606;BME280;43430;48.204;11.556;2023-04-23T08:47:09;95631.28;;;11.65;100.00
57606;BME280;43430;48.204;11.556;2023-04-23T08:49:36;95611.59;;;11.73;100.00
57606;BME280;43430;48.204;11.556;2023-04-23T08:52:14;95615.03;;;11.85;100.00
57606;BME280;43430;48.204;11.556;2023-04-23T08:54:45;95599.81;;;11.93;100.00
57606;BME280;43430;48.204;11.556;2023-04-23T08:57:12;95594.69;;;11.86;100.00
57606;BME280;43430;48.204;11.556;2023-04-23T08:59:40;95591.84;;;11.87;100.00
57606;BME280;43430;48.204;11.556;2023-04-23T09:02:05;95583.50;;;11.96;100.00
57606;BME280;43430;48.204;11.556;2023-04-23T09:04:34;95576.00;;;12.04;100.00
57606;BME280;43430;48.204;11.556;2023-04-23T09:07:00;95567.97;;;12.16;100.00
57606;BME280;43430;48.204;11.556;2023-04-23T09:09:27;95556.66;;;12.04;100.00
57606;BME280;43430;48.204;11.556;2023-04-23T09:11:54;95572.34;;;12.27;100.00
57606;BME280;43430;48.204;11.556;2023-04-23T09:14:24;95575.91;;;12.55;100.00
57606;BME280;43430;48.204;11.556;2023-04-23T09:16:50;95560.44;;;12.64;100.00
57606;BME280;43430;48.204;11.556;2023-04-23T09:19:17;95536.22;;;12.72;100.00
57606;BME280;43430;48.204;11.556;2023-04-23T09:21:44;95535.16;;;12.73;100.00
57606;BME280;43430;48.204;11.556;2023-04-23T09:24:11;95515.47;;;12.86;100.00
57606;BME280;43430;48.204;11.556;2023-04-23T09:26:48;95515.09;;;12.99;100.00
57606;BME280;43430;48.204;11.556;2023-04-23T09:29:15;95531.13;;;13.14;100.00
57606;BME280;43430;48.204;11.556;2023-04-23T09:31:46;95503.34;;;13.12;100.00
57606;BME280;43430;48.204;11.556;2023-04-23T09:34:14;95495.09;;;13.08;100.00
57606;BME280;43430;48.204;11.556;2023-04-23T09:36:42;95489.19;;;13.01;100.00
57606;BME280;43430;48.204;11.556;2023-04-23T09:39:13;95495.72;;;13.20;100.00
57606;BME280;43430;48.204;11.556;2023-04-23T09:41:39;95502.25;;;13.35;100.00
57606;BME280;43430;48.204;11.556;2023-04-23T09:44:04;95481.47;;;13.21;100.00
57606;BME280;43430;48.204;11.556;2023-04-23T09:46:35;95479.63;;;13.22;100.00
57606;BME280;43430;48.204;11.556;2023-04-23T09:49:04;95482.59;;;13.25;100.00
57606;BME280;43430;48.204;11.556;2023-04-23T09:51:42;95476.72;;;13.50;100.00
57606;BME280;43430;48.204;11.556;2023-04-23T09:54:13;95451.06;;;13.56;100.00
57606;BME280;43430;48.204;11.556;2023-04-23T09:56:40;95453.66;;;13.46;100.00
57606;BME280;43430;48.204;11.556;2023-04-23T10:01:46;95467.50;;;13.58;100.00
57606;BME280;43430;48.204;11.556;2023-04-23T10:04:16;95456.09;;;13.52;100.00
57606;BME280;43430;48.204;11.556;2023-04-23T10:06:42;95448.00;;;13.37;100.00
57606;BME280;43430;48.204;11.556;2023-04-23T10:09:07;95456.91;;;13.58;100.00
57606;BME280;43430;48.204;11.556;2023-04-23T10:11:34;95448.94;;;13.53;100.00
57606;BME280;43430;48.204;11.556;2023-04-23T10:13:59;95441.00;;;13.53;100.00
57606;BME280;43430;48.204;11.556;2023-04-23T10:16:25;95446.88;;;13.65;100.00
57606;BME280;43430;48.204;11.556;2023-04-23T10:18:51;95439.09;;;13.86;100.00
57606;BME280;43430;48.204;11.556;2023-04-23T10:21:18;95433.09;;;14.00;100.00
57606;BME280;43430;48.204;11.556;2023-04-23T10:23:46;95418.59;;;13.71;100.00
57606;BME280;43430;48.204;11.556;2023-04-23T10:26:14;95422.25;;;13.65;100.00
57606;BME280;43430;48.204;11.556;2023-04-23T10:28:43;95423.31;;;13.64;100.00
57606;BME280;43430;48.204;11.556;2023-04-23T10:31:11;95425.03;;;13.80;100.00
57606;BME280;43430;48.204;11.556;2023-04-23T10:33:37;95419.81;;;13.95;100.00
57606;BME280;43430;48.204;11.556;2023-04-23T10:36:03;95437.94;;;14.14;100.00
57606;BME280;43430;48.204;11.556;2023-04-23T10:38:28;95412.13;;;13.94;100.00
57606;BME280;43430;48.204;11.556;2023-04-23T10:40:55;95411.06;;;13.95;100.00
57606;BME280;43430;48.204;11.556;2023-04-23T10:43:22;95422.78;;;14.04;100.00
57606;BME280;43430;48.204;11.556;2023-04-23T10:45:48;95416.94;;;14.07;100.00
57606;BME280;43430;48.204;11.556;2023-04-23T10:48:14;95409.31;;;14.21;100.00
57606;BME280;43430;48.204;11.556;2023-04-23T10:50:39;95398.53;;;14.38;100.00
57606;BME280;43430;48.204;11.556;2023-04-23T10:53:17;95391.97;;;14.51;100.00
57606;BME280;43430;48.204;11.556;2023-04-23T10:55:43;95387.50;;;14.61;100.00
57606;BME280;43430;48.204;11.556;2023-04-23T10:58:08;95386.75;;;14.66;100.00
57606;BME280;43430;48.204;11.556;2023-04-23T11:05:59;95357.06;;;15.20;100.00
57606;BME280;43430;48.204;11.556;2023-04-23T11:08:28;95337.16;;;15.23;100.00
57606;BME280;43430;48.204;11.556;2023-04-23T11:10:57;95341.94;;;15.15;100.00
57606;BME280;43430;48.204;11.556;2023-04-23T11:13:26;95344.31;;;15.17;100.00
57606;BME280;43430;48.204;11.556;2023-04-23T11:19:16;95330.75;;;15.03;100.00
57606;BME280;43430;48.204;11.556;2023-04-23T11:22:01;95335.28;;;14.87;100.00
57606;BME280;43430;48.204;11.556;2023-04-23T11:24:37;95326.25;;;14.88;100.00
57606;BME280;43430;48.204;11.556;2023-04-23T11:27:08;95332.09;;;14.80;100.00
57606;BME280;43430;48.204;11.556;2023-04-23T11:29:36;95327.31;;;14.77;100.00
57606;BME280;43430;48.204;11.556;2023-04-23T11:32:02;95329.97;;;14.98;100.00
57606;BME280;43430;48.204;11.556;2023-04-23T11:34:30;95315.09;;;15.12;100.00
57606;BME280;43430;48.204;11.556;2023-04-23T11:36:58;95313.25;;;15.02;100.00
57606;BME280;43430;48.204;11.556;2023-04-23T11:39:23;95305.53;;;15.06;100.00
57606;BME280;43430;48.204;11.556;2023-04-23T11:41:49;95301.56;;;15.08;100.00
57606;BME280;43430;48.204;11.556;2023-04-23T11:44:14;95307.94;;;15.07;100.00
57606;BME280;43430;48.204;11.556;2023-04-23T11:46:40;95297.84;;;15.14;100.00
57606;BME280;43430;48.204;11.556;2023-04-23T11:49:06;95294.13;;;15.26;100.00
57606;BME280;43430;48.204;11.556;2023-04-23T11:51:33;95298.34;;;15.47;100.00
57606;BME280;43430;48.204;11.556;2023-04-23T11:54:03;95275.44;;;15.72;100.00
57606;BME280;43430;48.204;11.556;2023-04-23T11:56:32;95277.84;;;15.63;100.00
57606;BME280;43430;48.204;11.556;2023-04-23T11:59:00;95270.41;;;15.60;100.00
57606;BME280;43430;48.204;11.556;2023-04-23T12:01:39;95264.28;;;15.64;100.00
57606;BME280;43430;48.204;11.556;2023-04-23T12:04:25;95258.97;;;15.64;100.00
57606;BME280;43430;48.204;11.556;2023-04-23T12:06:52;95248.63;;;15.58;100.00
57606;BME280;43430;48.204;11.556;2023-04-23T12:09:20;95241.72;;;15.67;100.00
57606;BME280;43430;48.204;11.556;2023-04-23T12:11:46;95235.59;;;15.51;100.00
57606;BME280;43430;48.204;11.556;2023-04-23T12:14:16;95231.88;;;15.57;100.00
57606;BME280;43430;48.204;11.556;2023-04-23T12:16:44;95232.41;;;15.54;100.00
57606;BME280;43430;48.204;11.556;2023-04-23T12:19:14;95224.19;;;15.56;100.00
57606;BME280;43430;48.204;11.556;2023-04-23T12:21:57;95225.19;;;15.75;100.00
57606;BME280;43430;48.204;11.556;2023-04-23T12:24:24;95231.88;;;15.62;100.00
57606;BME280;43430;48.204;11.556;2023-04-23T12:26:58;95228.69;;;15.60;100.00
57606;BME280;43430;48.204;11.556;2023-04-23T12:29:25;95215.91;;;15.73;100.00
57606;BME280;43430;48.204;11.556;2023-04-23T12:31:52;95218.22;;;15.89;100.00
57606;BME280;43430;48.204;11.556;2023-04-23T12:34:19;95215.88;;;15.78;100.00
57606;BME280;43430;48.204;11.556;2023-04-23T12:36:50;95209.25;;;15.75;100.00
57606;BME280;43430;48.204;11.556;2023-04-23T12:39:32;95209.44;;;15.94;100.00
57606;BME280;43430;48.204;11.556;2023-04-23T12:42:03;95199.53;;;16.05;100.00
57606;BME280;43430;48.204;11.556;2023-04-23T12:44:38;95191.19;;;16.17;100.00
57606;BME280;43430;48.204;11.556;2023-04-23T12:47:06;95182.47;;;16.11;100.00
57606;BME280;43430;48.204;11.556;2023-04-23T12:49:33;95182.81;;;15.99;100.00